createdAt,value
2018-12-14T00:04:58.208Z,1023.2
2018-12-14T00:09:58.416Z,1023.2
2018-12-14T00:14:58.373Z,1023.2
2018-12-14T00:19:58.679Z,1023.2
2018-12-14T00:24:58.638Z,1023.2
2018-12-14T00:29:58.519Z,1023.3
2018-12-14T00:34:59.598Z,1023.3
2018-12-14T00:39:58.452Z,1023.3
2018-12-14T00:44:58.410Z,1023.3
2018-12-14T00:49:59.369Z,1023.3
2018-12-14T00:54:58.038Z,1023.3
2018-12-14T00:59:58.940Z,1023.3
2018-12-14T01:04:58.961Z,1023.4
2018-12-14T01:09:58.718Z,1023.4
2018-12-14T01:14:58.069Z,1023.4
2018-12-14T01:19:58.470Z,1023.5
2018-12-14T01:24:58.657Z,1023.6
2018-12-14T01:29:59.064Z,1023.7
2018-12-14T01:34:58.637Z,1023.7
2018-12-14T01:39:58.146Z,1023.7
2018-12-14T01:44:57.945Z,1023.5
2018-12-14T01:49:59.181Z,1023.5
2018-12-14T01:54:58.570Z,1023.5
2018-12-14T01:59:59.280Z,1023.5
2018-12-14T02:04:58.542Z,1023.5
2018-12-14T02:09:58.412Z,1023.4
2018-12-14T02:15:00.132Z,1023.3
2018-12-14T02:19:58.468Z,1023.3
2018-12-14T02:24:58.679Z,1023.4
2018-12-14T02:29:58.774Z,1023.4
2018-12-14T02:34:58.086Z,1023.4
2018-12-14T02:39:58.769Z,1023.4
2018-12-14T02:44:58.770Z,1023.3
2018-12-14T02:50:00.716Z,1023.3
2018-12-14T02:54:58.746Z,1023.3
2018-12-14T02:59:59.014Z,1023.3
2018-12-14T03:04:58.041Z,1023.4
2018-12-14T03:09:58.435Z,1023.4
2018-12-14T03:14:58.147Z,1023.4
2018-12-14T03:20:02.249Z,1023.4
2018-12-14T03:24:58.700Z,1023.4
2018-12-14T03:29:58.449Z,1023.4
2018-12-14T03:34:58.916Z,1023.4
2018-12-14T03:39:58.909Z,1023.4
2018-12-14T03:44:58.334Z,1023.3
2018-12-14T03:49:58.205Z,1023.3
2018-12-14T03:54:58.624Z,1023.3
2018-12-14T03:59:58.463Z,1023.3
2018-12-14T04:04:58.177Z,1023.3
2018-12-14T04:09:58.398Z,1023.3
2018-12-14T04:14:58.350Z,1023.3
2018-12-14T04:19:58.226Z,1023.4
2018-12-14T04:24:57.958Z,1023.3
2018-12-14T04:29:57.900Z,1023.3
2018-12-14T04:34:57.834Z,1023.3
2018-12-14T04:39:57.706Z,1023.4
2018-12-14T04:44:57.954Z,1023.3
2018-12-14T04:49:57.863Z,1023.3
2018-12-14T04:54:57.634Z,1023.4
2018-12-14T04:59:57.943Z,1023.4
2018-12-14T05:04:57.920Z,1023.3
2018-12-14T05:09:57.706Z,1023.4
2018-12-14T05:14:57.939Z,1023.4
2018-12-14T05:19:57.721Z,1023.4
2018-12-14T05:24:57.883Z,1023.4
2018-12-14T05:29:57.725Z,1023.3
2018-12-14T05:34:57.525Z,1023.4
2018-12-14T05:39:57.914Z,1023.4
2018-12-14T05:44:57.771Z,1023.4
2018-12-14T05:49:58.136Z,1023.4
2018-12-14T05:54:57.768Z,1023.5
2018-12-14T05:59:57.610Z,1023.5
2018-12-14T06:04:57.874Z,1023.6
2018-12-14T06:09:57.690Z,1023.7
2018-12-14T06:14:57.843Z,1023.8
2018-12-14T06:19:57.812Z,1023.8
2018-12-14T06:24:57.835Z,1023.9
2018-12-14T06:29:57.856Z,1023.9
2018-12-14T06:34:57.815Z,1024
2018-12-14T06:39:57.593Z,1024
2018-12-14T06:44:57.567Z,1024.1
2018-12-14T06:49:57.612Z,1024.1
2018-12-14T06:54:57.720Z,1024.2
2018-12-14T06:59:57.826Z,1024.2
2018-12-14T07:04:57.726Z,1024.2
2018-12-14T07:09:57.753Z,1024.3
2018-12-14T07:14:57.662Z,1024.3
2018-12-14T07:19:57.390Z,1024.4
2018-12-14T07:24:57.400Z,1024.4
2018-12-14T07:29:57.599Z,1024.5
2018-12-14T07:34:57.533Z,1024.5
2018-12-14T07:39:57.556Z,1024.5
2018-12-14T07:44:57.388Z,1024.5
2018-12-14T07:49:57.753Z,1024.6
2018-12-14T07:54:57.785Z,1024.6
2018-12-14T07:59:57.836Z,1024.7
2018-12-14T08:04:58.316Z,1024.8
2018-12-14T08:09:57.659Z,1024.8
2018-12-14T08:14:57.692Z,1024.8
2018-12-14T08:19:57.501Z,1024.9
2018-12-14T08:24:57.625Z,1024.9
2018-12-14T08:29:57.571Z,1024.9
2018-12-14T08:34:57.740Z,1025
2018-12-14T08:39:57.698Z,1024.9
2018-12-14T08:44:57.718Z,1025
2018-12-14T08:49:57.517Z,1025
2018-12-14T08:54:57.377Z,1025
2018-12-14T08:59:57.790Z,1025
2018-12-14T09:04:57.419Z,1025
2018-12-14T09:09:57.375Z,1025
2018-12-14T09:14:57.580Z,1025.1
2018-12-14T09:19:57.487Z,1025.1
2018-12-14T09:24:57.420Z,1025.1
2018-12-14T09:29:57.363Z,1025.1
2018-12-14T09:34:57.648Z,1025.1
2018-12-14T09:39:57.694Z,1025.1
2018-12-14T09:44:57.541Z,1025.2
2018-12-14T09:49:57.508Z,1025.2
2018-12-14T09:54:57.337Z,1025.2
2018-12-14T09:59:57.601Z,1025.2
2018-12-14T10:04:57.717Z,1025.3
2018-12-14T10:09:57.726Z,1025.3
2018-12-14T10:14:58.399Z,1025.2
2018-12-14T10:19:57.852Z,1025.2
2018-12-14T10:30:06.670Z,1025.2
2018-12-14T10:35:01.556Z,1025.1
2018-12-14T10:40:02.794Z,1025.1
2018-12-14T10:45:01.667Z,1025
2018-12-14T10:50:01.761Z,1025
2018-12-14T10:55:01.537Z,1025
2018-12-14T11:00:01.692Z,1025
2018-12-14T11:05:01.369Z,1025
2018-12-14T11:10:01.630Z,1024.9
2018-12-14T11:15:01.416Z,1024.9
2018-12-14T11:20:01.293Z,1024.9
2018-12-14T11:25:01.476Z,1024.9
2018-12-14T11:30:01.418Z,1024.9
2018-12-14T11:35:01.449Z,1024.9
2018-12-14T11:40:01.305Z,1024.8
2018-12-14T11:45:01.260Z,1024.8
2018-12-14T11:50:01.335Z,1024.8
2018-12-14T11:55:01.978Z,1024.8
2018-12-14T12:00:01.264Z,1024.9
2018-12-14T12:05:01.444Z,1024.8
2018-12-14T12:10:01.354Z,1024.9
2018-12-14T12:15:01.222Z,1024.8
2018-12-14T12:20:01.460Z,1024.8
2018-12-14T12:25:02.171Z,1024.8
2018-12-14T12:30:01.592Z,1024.8
2018-12-14T12:35:01.245Z,1024.8
2018-12-14T12:40:01.363Z,1024.7
2018-12-14T12:45:01.566Z,1024.7
2018-12-14T12:50:01.361Z,1024.7
2018-12-14T12:55:01.590Z,1024.7
2018-12-14T13:00:01.439Z,1024.7
2018-12-14T13:05:01.170Z,1024.7
2018-12-14T13:10:01.439Z,1024.8
2018-12-14T13:15:01.466Z,1024.8
2018-12-14T13:20:01.311Z,1024.7
2018-12-14T13:25:01.315Z,1024.6
2018-12-14T13:30:01.298Z,1024.6
2018-12-14T13:35:01.362Z,1024.7
2018-12-14T13:40:01.193Z,1024.7
2018-12-14T13:45:01.086Z,1024.7
2018-12-14T13:50:01.379Z,1024.7
2018-12-14T13:55:01.324Z,1024.7
2018-12-14T14:00:01.206Z,1024.7
2018-12-14T14:05:01.597Z,1024.8
2018-12-14T14:10:02.695Z,1024.9
2018-12-14T14:15:01.212Z,1024.8
2018-12-14T14:20:01.035Z,1024.9
2018-12-14T14:25:01.332Z,1025
2018-12-14T14:30:01.443Z,1025
2018-12-14T14:35:01.252Z,1025.1
2018-12-14T14:40:01.228Z,1025.1
2018-12-14T14:45:01.137Z,1025.2
2018-12-14T14:50:01.418Z,1025.3
2018-12-14T14:55:01.498Z,1025.4
2018-12-14T15:00:01.180Z,1025.4
2018-12-14T15:05:01.260Z,1025.4
2018-12-14T15:10:01.158Z,1025.4
2018-12-14T15:15:06.705Z,1025.4
2018-12-14T15:20:01.033Z,1025.5
2018-12-14T15:25:01.120Z,1025.5
2018-12-14T15:30:01.048Z,1025.6
2018-12-14T15:35:01.144Z,1025.6
2018-12-14T15:40:00.887Z,1025.6
2018-12-14T15:45:01.259Z,1025.7
2018-12-14T15:50:01.266Z,1025.8
2018-12-14T15:55:01.192Z,1025.9
2018-12-14T16:00:43.444Z,1025.9
2018-12-14T16:05:01.387Z,1025.9
2018-12-14T16:10:01.071Z,1026
2018-12-14T16:15:01.235Z,1026
2018-12-14T16:20:01.908Z,1026.1
2018-12-14T16:25:02.669Z,1026.2
2018-12-14T16:30:00.970Z,1026.2
2018-12-14T16:35:01.283Z,1026.3
2018-12-14T16:40:01.036Z,1026.3
2018-12-14T16:45:01.286Z,1026.3
2018-12-14T16:50:01.369Z,1026.3
2018-12-14T16:55:01.096Z,1026.3
2018-12-14T17:00:01.455Z,1026.3
2018-12-14T17:05:00.883Z,1026.3
2018-12-14T17:10:02.023Z,1026.3
2018-12-14T17:15:00.971Z,1026.3
2018-12-14T17:20:01.436Z,1026.3
2018-12-14T17:25:00.984Z,1026.3
2018-12-14T17:30:02.205Z,1026.2
2018-12-14T17:35:00.859Z,1026.3
2018-12-14T17:40:01.565Z,1026.3
2018-12-14T17:45:00.972Z,1026.3
2018-12-14T17:50:01.424Z,1026.2
2018-12-14T17:55:01.074Z,1026.2
2018-12-14T18:00:03.325Z,1026.3
2018-12-14T18:05:00.917Z,1026.3
2018-12-14T18:10:02.350Z,1026.4
2018-12-14T18:15:00.898Z,1026.4
2018-12-14T18:20:00.961Z,1026.4
2018-12-14T18:25:01.998Z,1026.4
2018-12-14T18:30:00.799Z,1026.5
2018-12-14T18:35:01.030Z,1026.6
2018-12-14T18:40:02.077Z,1026.6
2018-12-14T18:45:01.016Z,1026.6
2018-12-14T18:50:01.019Z,1026.7
2018-12-14T18:55:03.065Z,1026.7
2018-12-14T19:00:00.930Z,1026.8
2018-12-14T19:05:01.163Z,1026.8
2018-12-14T19:10:00.825Z,1026.8
2018-12-14T19:15:01.107Z,1026.8
2018-12-14T19:20:00.969Z,1026.8
2018-12-14T19:25:00.866Z,1026.8
2018-12-14T19:30:00.936Z,1026.8
2018-12-14T19:35:00.970Z,1026.8
2018-12-14T19:40:03.345Z,1026.7
2018-12-14T19:45:01.337Z,1026.7
2018-12-14T19:50:01.331Z,1026.5
2018-12-14T19:55:02.205Z,1026.5
2018-12-14T20:00:00.808Z,1026.4
2018-12-14T20:05:00.894Z,1026.4
2018-12-14T20:10:00.883Z,1026.4
2018-12-14T20:15:00.935Z,1026.4
2018-12-14T20:20:00.816Z,1026.4
2018-12-14T20:25:00.871Z,1026.3
2018-12-14T20:30:00.872Z,1026.4
2018-12-14T20:35:00.874Z,1026.3
2018-12-14T20:40:02.159Z,1026.3
2018-12-14T20:45:00.922Z,1026.3
2018-12-14T20:50:01.006Z,1026.3
2018-12-14T20:55:00.579Z,1026.3
2018-12-14T21:00:01.427Z,1026.3
2018-12-14T21:05:00.962Z,1026.4
2018-12-14T21:10:02.374Z,1026.3
2018-12-14T21:15:01.285Z,1026.3
2018-12-14T21:20:00.677Z,1026.2
2018-12-14T21:25:00.678Z,1026.1
2018-12-14T21:30:00.627Z,1026.1
2018-12-14T21:35:01.223Z,1026.1
2018-12-14T21:40:01.953Z,1026.1
2018-12-14T21:45:00.587Z,1026.1
2018-12-14T21:50:00.964Z,1026.1
2018-12-14T21:55:02.812Z,1026
2018-12-14T22:00:01.134Z,1026
2018-12-14T22:05:00.511Z,1026
2018-12-14T22:10:02.494Z,1026
2018-12-14T22:15:01.317Z,1026
2018-12-14T22:20:00.603Z,1026
2018-12-14T22:25:00.660Z,1026
2018-12-14T22:30:01.203Z,1026
2018-12-14T22:35:01.551Z,1026.1
2018-12-14T22:40:02.973Z,1026.2
2018-12-14T22:45:00.891Z,1026.2
2018-12-14T22:50:01.170Z,1026.1
2018-12-14T22:55:00.454Z,1026.2
2018-12-14T23:00:01.600Z,1026.3
2018-12-14T23:05:00.520Z,1026.3
2018-12-14T23:10:00.826Z,1026.4
2018-12-14T23:15:00.524Z,1026.5
2018-12-14T23:20:00.707Z,1026.4
2018-12-14T23:25:00.654Z,1026.5
2018-12-14T23:30:00.811Z,1026.4
2018-12-14T23:35:00.845Z,1026.5
2018-12-14T23:40:00.797Z,1026.4
2018-12-14T23:45:00.645Z,1026.5
2018-12-14T23:50:00.572Z,1026.5
2018-12-14T23:55:00.433Z,1026.5
